Time;durP1;ratioP1;P1;durP2;ratioP2;P2;SDS_P1;SDS_P2;PMS_P1;PMS_P2;Temp;Humidity;BMP_temperature;BMP_pressure;BME280_temperature;BME280_humidity;BME280_pressure;Samples;Min_cycle;Max_cycle;Signal;HPM_P1;HPM_P2
2024/03/19 00:01:37;;;;;;;31.08;12.20;;;;;;;3.01;100.00;100914.25;4987718;28;20101;-78
2024/03/19 00:04:02;;;;;;;17.15;7.70;;;;;;;2.89;100.00;100863.22;4989031;28;20042;-78
2024/03/19 00:06:28;;;;;;;21.95;10.20;;;;;;;3.11;100.00;100885.41;4972855;28;20031;-77
2024/03/19 00:08:53;;;;;;;23.52;9.07;;;;;;;3.04;100.00;100873.59;4969588;28;20037;-77
2024/03/19 00:11:19;;;;;;;20.10;9.02;;;;;;;2.95;100.00;100857.50;4985204;28;20065;-78
2024/03/19 00:13:44;;;;;;;21.58;9.85;;;;;;;2.94;100.00;100878.72;4977812;28;20031;-77
2024/03/19 00:16:10;;;;;;;19.75;9.85;;;;;;;2.87;100.00;100878.31;4969683;28;20034;-78
2024/03/19 00:18:35;;;;;;;16.27;9.10;;;;;;;2.90;100.00;100883.38;5001706;28;20481;-77
2024/03/19 00:21:01;;;;;;;18.10;10.05;;;;;;;2.82;100.00;100853.22;4970827;28;20121;-78
2024/03/19 00:23:26;;;;;;;23.27;9.40;;;;;;;2.96;100.00;100909.28;4971735;28;20080;-78
2024/03/19 00:25:51;;;;;;;25.05;9.60;;;;;;;2.85;100.00;100827.47;4973141;28;20030;-77
2024/03/19 00:28:17;;;;;;;24.20;10.63;;;;;;;3.05;100.00;100896.41;4988786;28;20038;-78
2024/03/19 00:30:44;;;;;;;28.42;9.23;;;;;;;2.95;100.00;100849.59;4986238;28;20038;-77
2024/03/19 00:33:10;;;;;;;29.33;10.45;;;;;;;3.00;100.00;100846.63;4985230;28;20057;-77
2024/03/19 00:35:44;;;;;;;23.58;9.85;;;;;;;2.85;100.00;100816.91;4988457;28;20066;-77
2024/03/19 00:38:10;;;;;;;22.83;10.52;;;;;;;2.81;100.00;100777.69;4979328;28;20050;-77
2024/03/19 00:40:35;;;;;;;23.38;11.13;;;;;;;2.65;100.00;100770.06;4984826;28;20038;-77
2024/03/19 00:43:03;;;;;;;23.98;9.75;;;;;;;2.72;100.00;100776.59;4953255;28;20035;-77
2024/03/19 00:45:29;;;;;;;24.35;10.60;;;;;;;2.55;100.00;100772.50;4982957;28;20031;-76
2024/03/19 00:47:54;;;;;;;23.75;9.80;;;;;;;2.89;100.00;100865.84;4975128;28;20125;-77
2024/03/19 00:50:20;;;;;;;19.85;9.20;;;;;;;2.84;100.00;100860.06;4977022;28;20498;-77
2024/03/19 00:52:45;;;;;;;20.80;9.73;;;;;;;2.94;100.00;100858.44;5001596;28;20069;-76
2024/03/19 00:55:10;;;;;;;24.23;9.32;;;;;;;2.72;100.00;100789.78;4982779;28;20660;-76
2024/03/19 00:57:36;;;;;;;22.50;9.05;;;;;;;2.72;100.00;100813.50;5002731;28;20058;-77
2024/03/19 01:00:10;;;;;;;25.30;8.68;;;;;;;2.72;100.00;100829.31;4976601;28;20039;-76
2024/03/19 01:02:38;;;;;;;21.60;9.63;;;;;;;2.99;100.00;100881.03;4978637;28;20351;-77
2024/03/19 01:05:08;;;;;;;27.73;10.25;;;;;;;2.75;100.00;100800.09;4969778;28;20030;-77
2024/03/19 01:07:42;;;;;;;16.50;8.57;;;;;;;2.83;100.00;100861.00;4969844;28;20030;-77
2024/03/19 01:10:08;;;;;;;27.25;10.25;;;;;;;2.79;100.00;100869.28;4988028;28;20045;-77
2024/03/19 01:12:34;;;;;;;21.58;8.18;;;;;;;2.71;100.00;100824.97;4962997;28;20038;-77
2024/03/19 01:15:00;;;;;;;;;;;;;;;2.71;100.00;100867.16;4977221;28;20042;-76
2024/03/19 01:17:25;;;;;;;21.25;8.93;;;;;;;2.86;100.00;100918.81;5000555;28;20018;-76
2024/03/19 01:19:51;;;;;;;18.63;8.98;;;;;;;2.64;100.00;100873.81;4977212;28;20034;-77
2024/03/19 01:22:17;;;;;;;21.83;10.68;;;;;;;2.79;100.00;100928.13;4975822;28;20148;-77
2024/03/19 01:24:42;;;;;;;17.83;8.95;;;;;;;2.80;100.00;100927.16;4986326;28;20033;-77
2024/03/19 01:27:08;;;;;;;26.10;9.25;;;;;;;2.76;100.00;100915.13;4983345;28;20515;-76
2024/03/19 01:29:34;;;;;;;;;;;;;;;2.60;100.00;100854.75;4976388;28;20508;-77
2024/03/19 01:31:59;;;;;;;22.25;9.63;;;;;;;2.66;100.00;100903.56;4975910;28;19961;-77
2024/03/19 01:34:25;;;;;;;22.23;10.27;;;;;;;2.71;100.00;100877.72;4979590;28;20137;-77
2024/03/19 01:36:50;;;;;;;17.17;7.88;;;;;;;2.73;100.00;100894.25;4995238;28;20038;-76
2024/03/19 01:39:16;;;;;;;23.38;8.60;;;;;;;2.77;100.00;100858.81;4987034;28;20038;-77
2024/03/19 01:41:42;;;;;;;20.05;9.13;;;;;;;3.04;100.00;100911.38;4983195;28;20030;-77
2024/03/19 01:44:16;;;;;;;18.38;8.45;;;;;;;2.84;100.00;100817.88;4987318;28;20409;-76
2024/03/19 01:46:43;;;;;;;17.80;8.45;;;;;;;2.78;100.00;100775.28;4960957;28;20049;-77
2024/03/19 01:49:09;;;;;;;19.23;8.45;;;;;;;2.85;100.00;100803.72;4980080;28;20018;-77
2024/03/19 01:51:34;;;;;;;18.55;9.07;;;;;;;2.66;100.00;100693.50;4978217;28;20026;-76
2024/03/19 01:54:00;;;;;;;19.02;8.05;;;;;;;2.88;100.00;100742.00;4967901;28;20065;-77
2024/03/19 01:56:26;;;;;;;23.77;9.68;;;;;;;2.67;100.00;100660.94;4983814;28;20065;-76
2024/03/19 01:58:52;;;;;;;16.23;8.18;;;;;;;2.77;100.00;100728.78;4978568;28;20507;-77
2024/03/19 02:01:17;;;;;;;17.80;8.23;;;;;;;2.64;100.00;100660.28;4979764;28;20109;-76
2024/03/19 02:03:44;;;;;;;22.02;7.70;;;;;;;2.72;100.00;100664.06;4975528;28;20034;-76
2024/03/19 02:06:11;;;;;;;24.15;8.95;;;;;;;2.66;100.00;100687.38;4981884;28;20027;-76
2024/03/19 02:08:37;;;;;;;16.98;7.72;;;;;;;2.62;100.00;100672.75;4991709;28;20034;-77
2024/03/19 02:11:02;;;;;;;23.52;7.60;;;;;;;2.68;100.00;100691.59;4979064;28;20044;-77
2024/03/19 02:13:28;;;;;;;16.33;8.75;;;;;;;2.76;100.00;100669.94;4986173;28;20030;-77
2024/03/19 02:15:54;;;;;;;17.20;7.10;;;;;;;2.65;100.00;100610.09;4967637;28;20023;-77
2024/03/19 02:18:19;;;;;;;14.93;7.75;;;;;;;2.69;100.00;100608.06;4963449;28;20062;-77
2024/03/19 02:20:44;;;;;;;14.60;7.13;;;;;;;2.58;100.00;100548.28;4983826;28;20137;-77
2024/03/19 02:23:10;;;;;;;22.43;7.47;;;;;;;2.81;100.00;100633.53;4980820;28;20093;-77
2024/03/19 02:25:35;;;;;;;12.80;7.07;;;;;;;2.79;100.00;100587.97;4970721;28;20270;-77
2024/03/19 02:28:01;;;;;;;13.18;6.90;;;;;;;2.45;100.00;100476.34;4973804;28;20049;-77
2024/03/19 02:30:26;;;;;;;17.20;7.47;;;;;;;2.67;100.00;100580.97;5000210;28;20536;-77
2024/03/19 02:32:52;;;;;;;16.02;8.38;;;;;;;2.46;100.00;100576.38;4978536;28;20093;-76
2024/03/19 02:35:17;;;;;;;14.02;6.70;;;;;;;2.72;100.00;100627.16;4970419;28;20113;-77
2024/03/19 02:37:43;;;;;;;21.40;6.93;;;;;;;2.36;100.00;100562.19;4986996;28;20544;-77
2024/03/19 02:40:09;;;;;;;16.15;8.38;;;;;;;2.31;100.00;100580.16;4986011;28;20037;-77
2024/03/19 02:42:34;;;;;;;13.05;6.85;;;;;;;2.34;100.00;100643.13;4986108;28;20038;-76
2024/03/19 02:45:00;;;;;;;13.48;6.72;;;;;;;2.32;100.00;100658.25;4985697;28;20037;-77
2024/03/19 02:47:26;;;;;;;14.05;7.40;;;;;;;2.22;100.00;100657.22;4986017;28;20037;-77
2024/03/19 02:49:51;;;;;;;13.57;6.72;;;;;;;2.33;100.00;100667.81;4982841;28;20505;-77
2024/03/19 02:52:16;;;;;;;12.38;7.50;;;;;;;2.23;100.00;100674.72;4987615;28;20489;-77
2024/03/19 02:54:42;;;;;;;16.60;5.93;;;;;;;2.20;100.00;100677.53;4986117;28;20037;-77
2024/03/19 02:57:07;;;;;;;12.07;6.45;;;;;;;2.16;100.00;100671.69;4986317;28;20107;-77
2024/03/19 02:59:33;;;;;;;15.97;7.53;;;;;;;2.22;100.00;100675.66;4985478;28;20029;-77
2024/03/19 03:01:58;;;;;;;11.87;6.17;;;;;;;2.26;100.00;100700.84;4986390;28;20776;-77
2024/03/19 03:04:23;;;;;;;15.18;6.85;;;;;;;2.19;100.00;100660.06;5002674;28;20285;-77
2024/03/19 03:06:49;;;;;;;12.50;6.60;;;;;;;2.22;100.00;100689.66;4987043;28;20154;-77
2024/03/19 03:09:15;;;;;;;10.43;7.10;;;;;;;2.28;100.00;100709.47;4978770;28;20782;-76
2024/03/19 03:11:40;;;;;;;11.40;5.95;;;;;;;2.15;100.00;100669.97;4984298;28;20038;-77
2024/03/19 03:14:05;;;;;;;13.77;6.72;;;;;;;2.17;100.00;100660.19;4985933;28;20038;-77
2024/03/19 03:16:31;;;;;;;11.20;5.07;;;;;;;2.00;100.00;100619.25;4986050;28;20030;-77
2024/03/19 03:18:56;;;;;;;10.02;6.07;;;;;;;2.24;100.00;100689.56;4985957;28;20080;-77
2024/03/19 03:21:22;;;;;;;11.00;5.75;;;;;;;2.20;100.00;100643.31;4985897;28;20478;-77
2024/03/19 03:23:48;;;;;;;12.13;5.82;;;;;;;2.01;100.00;100617.47;4986174;28;20030;-77
2024/03/19 03:26:14;;;;;;;18.83;7.95;;;;;;;2.24;100.00;100684.28;4986097;28;20026;-77
2024/03/19 03:28:39;;;;;;;9.98;6.00;;;;;;;2.17;100.00;100627.72;4985808;28;20053;-78
2024/03/19 03:31:05;;;;;;;13.07;6.32;;;;;;;2.22;100.00;100667.75;4986077;28;20417;-77
2024/03/19 03:33:33;;;;;;;13.32;6.10;;;;;;;2.03;100.00;100620.81;4985994;28;20030;-77
2024/03/19 03:35:59;;;;;;;10.38;5.53;;;;;;;2.14;100.00;100702.53;4985856;28;20089;-77
2024/03/19 03:38:24;;;;;;;8.63;5.65;;;;;;;2.20;100.00;100682.81;4987142;28;20145;-78
2024/03/19 03:40:53;;;;;;;12.90;5.35;;;;;;;2.00;100.00;100616.63;4985704;28;20864;-77
2024/03/19 03:43:22;;;;;;;9.52;5.10;;;;;;;2.11;100.00;100682.53;4969592;28;20066;-77
2024/03/19 03:45:51;;;;;;;8.95;5.30;;;;;;;2.11;100.00;100685.19;4981710;28;20034;-77
2024/03/19 03:48:16;;;;;;;10.43;5.28;;;;;;;2.21;100.00;100734.56;4987334;28;20113;-77
2024/03/19 03:50:42;;;;;;;8.63;5.72;;;;;;;2.31;100.00;100738.22;4985334;28;20129;-77
2024/03/19 03:53:09;;;;;;;13.38;5.82;;;;;;;2.43;100.00;100732.06;4985680;28;20018;-77
2024/03/19 03:55:34;;;;;;;10.48;6.22;;;;;;;2.39;100.00;100669.16;4985867;28;20044;-77
2024/03/19 03:58:00;;;;;;;12.70;6.40;;;;;;;2.08;100.00;100569.53;4985777;28;20137;-77
2024/03/19 04:00:26;;;;;;;11.82;6.07;;;;;;;2.03;100.00;100608.50;4985646;28;20023;-77
2024/03/19 04:02:52;;;;;;;9.25;5.05;;;;;;;2.20;100.00;100698.63;4982347;28;20070;-76
2024/03/19 04:05:17;;;;;;;8.20;5.22;;;;;;;2.05;100.00;100650.53;4985464;28;20057;-77
2024/03/19 04:07:44;;;;;;;8.90;5.05;;;;;;;2.05;100.00;100658.44;4985752;28;20026;-77
2024/03/19 04:10:11;;;;;;;9.32;5.60;;;;;;;1.96;100.00;100633.59;4982555;28;20454;-77
2024/03/19 04:12:37;;;;;;;11.15;6.18;;;;;;;2.00;100.00;100660.56;4983331;28;20040;-77
2024/03/19 04:15:04;;;;;;;8.85;5.35;;;;;;;1.89;100.00;100642.88;4961997;28;20034;-77
2024/03/19 04:17:30;;;;;;;8.73;4.90;;;;;;;1.92;100.00;100686.56;4977672;28;20081;-77
2024/03/19 04:19:55;;;;;;;10.45;5.47;;;;;;;1.85;100.00;100673.00;4990431;28;20701;-76
2024/03/19 04:22:20;;;;;;;7.28;4.95;;;;;;;1.67;100.00;100619.88;4984138;28;20079;-77
2024/03/19 04:24:49;;;;;;;7.63;5.03;;;;;;;1.75;100.00;100664.06;4987643;28;20666;-76
2024/03/19 04:27:15;;;;;;;12.20;5.07;;;;;;;1.87;100.00;100669.34;4988951;28;20046;-77
2024/03/19 04:29:40;;;;;;;11.02;5.80;;;;;;;1.96;100.00;100702.03;4988720;28;20121;-77
2024/03/19 04:32:07;;;;;;;9.00;4.53;;;;;;;1.87;100.00;100623.72;4983974;28;20034;-77
2024/03/19 04:34:33;;;;;;;11.23;4.53;;;;;;;1.80;100.00;100601.41;4985756;28;20018;-77
2024/03/19 04:36:58;;;;;;;9.80;4.43;;;;;;;1.78;100.00;100621.72;4989354;28;20050;-77
2024/03/19 04:39:23;;;;;;;11.25;4.90;;;;;;;1.60;100.00;100590.50;4988607;28;20026;-77
2024/03/19 04:41:49;;;;;;;11.40;5.60;;;;;;;1.75;100.00;100627.22;4980608;28;20746;-77
2024/03/19 04:44:14;;;;;;;7.60;4.50;;;;;;;1.73;100.00;100592.28;4972740;28;20092;-77
2024/03/19 04:46:40;;;;;;;10.32;4.90;;;;;;;1.66;100.00;100608.50;4981938;28;20050;-76
2024/03/19 04:49:05;;;;;;;8.23;4.38;;;;;;;1.80;100.00;100648.78;4988471;28;20042;-77
2024/03/19 04:51:31;;;;;;;8.98;5.38;;;;;;;1.50;100.00;100546.53;4988490;28;20037;-77
2024/03/19 04:53:57;;;;;;;10.02;5.10;;;;;;;1.56;100.00;100620.63;4981035;28;20029;-77
2024/03/19 04:56:22;;;;;;;7.82;4.45;;;;;;;1.55;100.00;100607.59;4984402;28;20034;-77
2024/03/19 04:58:48;;;;;;;9.30;4.38;;;;;;;1.50;100.00;100626.34;4972082;28;20042;-76
2024/03/19 05:01:16;;;;;;;7.00;5.20;;;;;;;1.50;100.00;100617.56;4982884;28;20034;-77
2024/03/19 05:03:41;;;;;;;6.75;4.00;;;;;;;1.43;100.00;100594.34;4986278;28;20042;-77
2024/03/19 05:06:10;;;;;;;8.55;4.55;;;;;;;1.45;100.00;100638.94;4988721;28;20021;-77
2024/03/19 05:08:40;;;;;;;6.63;4.22;;;;;;;1.33;100.00;100602.97;4983986;28;20141;-77
2024/03/19 05:11:05;;;;;;;7.72;4.20;;;;;;;1.24;100.00;100588.66;4972286;28;20042;-78
2024/03/19 05:13:31;;;;;;;10.10;4.65;;;;;;;1.32;100.00;100611.81;5001534;28;20077;-77
2024/03/19 05:15:57;;;;;;;7.90;4.18;;;;;;;1.46;100.00;100624.84;4988467;28;20425;-77
2024/03/19 05:18:23;;;;;;;;;;;;;;;1.25;100.00;100559.63;4997742;28;20130;-76
2024/03/19 05:20:49;;;;;;;8.13;4.72;;;;;;;1.46;100.00;100661.69;5004788;28;20005;-77
2024/03/19 05:23:15;;;;;;;9.40;4.75;;;;;;;1.31;100.00;100610.13;4987885;28;20569;-76
2024/03/19 05:25:44;;;;;;;9.02;5.22;;;;;;;1.12;100.00;100595.59;4983841;28;20046;-77
2024/03/19 05:28:09;;;;;;;7.85;3.85;;;;;;;1.24;100.00;100642.13;4987256;28;20030;-76
2024/03/19 05:30:35;;;;;;;9.52;4.60;;;;;;;1.06;100.00;100585.53;4986856;28;20042;-76
2024/03/19 05:33:01;;;;;;;7.60;5.28;;;;;;;1.28;100.00;100674.31;4978538;28;20030;-76
2024/03/19 05:35:26;;;;;;;7.55;4.10;;;;;;;1.24;100.00;100610.56;4987243;28;20101;-77
2024/03/19 05:37:52;;;;;;;9.32;4.57;;;;;;;1.14;100.00;100577.09;4986879;28;20397;-76
2024/03/19 05:40:19;;;;;;;10.35;4.47;;;;;;;1.02;100.00;100595.41;4987187;28;20113;-76
2024/03/19 05:42:44;;;;;;;6.88;3.75;;;;;;;0.94;100.00;100633.69;4987011;28;20026;-76
2024/03/19 05:45:13;;;;;;;11.50;4.57;;;;;;;0.98;100.00;100653.56;4987083;28;20092;-76
2024/03/19 05:47:43;;;;;;;7.30;4.03;;;;;;;0.96;100.00;100674.72;4986642;28;20069;-76
2024/03/19 05:50:08;;;;;;;8.70;4.78;;;;;;;0.97;100.00;100663.22;4986639;28;20504;-75
2024/03/19 05:52:35;;;;;;;7.40;4.50;;;;;;;1.14;100.00;100701.53;4986311;28;20015;-75
2024/03/19 05:55:00;;;;;;;7.75;4.53;;;;;;;0.94;100.00;100638.94;4986619;28;20045;-76
2024/03/19 05:57:26;;;;;;;7.32;4.28;;;;;;;1.07;100.00;100673.13;4986793;28;20026;-75
2024/03/19 05:59:51;;;;;;;8.35;3.92;;;;;;;0.93;100.00;100617.06;4985978;28;20038;-76
2024/03/19 06:02:16;;;;;;;11.48;5.82;;;;;;;0.78;100.00;100592.66;4986653;28;20022;-76
2024/03/19 06:04:42;;;;;;;9.98;4.72;;;;;;;1.09;100.00;100673.88;4986275;28;20045;-76
2024/03/19 06:07:07;;;;;;;8.40;4.47;;;;;;;1.39;100.00;100713.03;4986619;28;20022;-76
2024/03/19 06:09:33;;;;;;;9.27;4.22;;;;;;;1.37;100.00;100622.84;4982692;28;20129;-76
2024/03/19 06:11:58;;;;;;;10.52;4.22;;;;;;;1.47;100.00;100621.25;4983903;28;20045;-77
2024/03/19 06:14:24;;;;;;;8.35;3.50;;;;;;;1.58;100.00;100586.31;4965641;28;20746;-76
2024/03/19 06:16:50;;;;;;;13.43;4.35;;;;;;;1.48;100.00;100496.66;4986251;28;20053;-76
2024/03/19 06:19:16;;;;;;;;;;;;;;;2.02;100.00;100571.75;4986643;28;20052;-76
2024/03/19 06:21:43;;;;;;;9.95;3.70;;;;;;;2.80;100.00;100587.00;4978685;28;20009;-76
2024/03/19 06:24:08;;;;;;;9.95;4.70;;;;;;;2.42;100.00;100245.56;4982414;28;20035;-76
2024/03/19 06:26:34;;;;;;;6.65;4.13;;;;;;;2.74;100.00;100377.44;5002888;28;20026;-76
2024/03/19 06:28:59;;;;;;;12.05;4.55;;;;;;;2.32;100.00;100184.88;4986139;28;20390;-76
2024/03/19 06:31:24;;;;;;;7.38;4.20;;;;;;;2.23;100.00;100245.34;4981286;28;20027;-76
2024/03/19 06:33:50;;;;;;;7.63;4.53;;;;;;;1.90;100.00;100194.38;4992633;28;20044;-75
2024/03/19 06:36:15;;;;;;;10.73;4.93;;;;;;;1.85;100.00;100252.66;4985389;28;20037;-76
2024/03/19 06:38:42;;;;;;;9.40;4.50;;;;;;;1.87;100.00;100313.06;4985435;28;20030;-75
2024/03/19 06:41:08;;;;;;;10.15;4.35;;;;;;;1.65;100.00;100313.88;4985473;28;20472;-76
2024/03/19 06:43:35;;;;;;;7.38;4.43;;;;;;;1.89;100.00;100455.94;4986774;28;20110;-76
2024/03/19 06:46:01;;;;;;;8.90;5.22;;;;;;;2.15;100.00;100496.13;4970088;28;20034;-74
2024/03/19 06:48:28;;;;;;;16.17;4.88;;;;;;;1.88;100.00;100396.38;4985411;28;20026;-76
2024/03/19 06:50:54;;;;;;;11.00;4.75;;;;;;;1.80;100.00;100438.19;4985847;28;20460;-76
2024/03/19 06:53:21;;;;;;;8.65;4.90;;;;;;;1.53;100.00;100405.09;4985335;28;20030;-76
2024/03/19 06:55:47;;;;;;;8.57;4.70;;;;;;;1.84;100.00;100500.22;5001578;28;20038;-76
2024/03/19 06:58:13;;;;;;;7.97;4.43;;;;;;;1.78;100.00;100545.41;4985302;28;20040;-76
2024/03/19 07:00:38;;;;;;;7.88;4.80;;;;;;;1.95;100.00;100571.34;4984850;28;20062;-76
2024/03/19 07:03:04;;;;;;;12.27;4.72;;;;;;;1.99;100.00;100569.31;4977833;28;20118;-76
2024/03/19 07:05:29;;;;;;;8.52;4.50;;;;;;;1.96;100.00;100551.97;4998379;28;20045;-75
2024/03/19 07:07:58;;;;;;;6.32;4.50;;;;;;;2.07;100.00;100586.25;4985033;28;20053;-76
2024/03/19 07:10:24;;;;;;;8.93;5.05;;;;;;;2.20;100.00;100551.97;4985702;28;20038;-76
2024/03/19 07:12:49;;;;;;;;;;;;;;;2.34;100.00;100561.47;5002617;28;20589;-76
2024/03/19 07:15:15;;;;;;;9.27;4.90;;;;;;;2.20;100.00;100530.91;4985936;28;19922;-76
2024/03/19 07:17:42;;;;;;;7.47;5.05;;;;;;;2.24;100.00;100511.25;4978019;28;20050;-76
2024/03/19 07:20:12;;;;;;;9.10;5.32;;;;;;;2.02;100.00;100411.97;4969579;28;20034;-76
2024/03/19 07:22:38;;;;;;;12.00;6.03;;;;;;;2.28;100.00;100472.38;4985642;28;20038;-76
2024/03/19 07:25:07;;;;;;;8.57;4.57;;;;;;;2.22;100.00;100406.97;4976485;28;20030;-75
2024/03/19 07:27:37;;;;;;;6.63;4.43;;;;;;;2.23;100.00;100446.38;4985510;28;20038;-76
2024/03/19 07:30:08;;;;;;;7.88;4.55;;;;;;;2.27;100.00;100447.81;5001495;28;20660;-76
2024/03/19 07:32:33;;;;;;;10.10;5.05;;;;;;;2.29;100.00;100466.13;4981475;28;20042;-76
2024/03/19 07:34:59;;;;;;;11.07;5.20;;;;;;;2.30;100.00;100454.66;4985254;28;20057;-76
2024/03/19 07:37:25;;;;;;;9.18;4.43;;;;;;;2.57;100.00;100543.09;4985419;28;20383;-76
2024/03/19 07:39:55;;;;;;;8.93;4.50;;;;;;;2.69;100.00;100536.88;4984772;28;20491;-76
2024/03/19 07:42:20;;;;;;;7.97;4.63;;;;;;;2.71;100.00;100466.44;4984889;28;20077;-76
2024/03/19 07:44:46;;;;;;;8.60;4.90;;;;;;;2.99;100.00;100472.22;4985845;28;20046;-75
2024/03/19 07:47:11;;;;;;;11.43;5.13;;;;;;;2.99;100.00;100379.91;4969085;28;20041;-77
2024/03/19 07:49:36;;;;;;;9.30;5.43;;;;;;;3.24;100.00;100361.13;4984471;28;20380;-76
2024/03/19 07:52:04;;;;;;;12.10;4.60;;;;;;;3.25;100.00;100251.16;4986185;28;20827;-76
2024/03/19 07:54:30;;;;;;;9.18;4.40;;;;;;;3.56;100.00;100349.75;4985035;28;20038;-76
2024/03/19 07:56:55;;;;;;;5.80;4.20;;;;;;;3.64;100.00;100257.53;4980350;28;20042;-76
2024/03/19 07:59:21;;;;;;;8.45;4.35;;;;;;;3.44;100.00;100184.47;4986133;28;20086;-76
2024/03/19 08:01:49;;;;;;;9.27;5.15;;;;;;;3.19;100.00;100175.19;4986250;28;20034;-76
2024/03/19 08:04:15;;;;;;;12.52;5.88;;;;;;;3.44;100.00;100232.84;4982165;28;20077;-76
2024/03/19 08:06:41;;;;;;;7.53;5.03;;;;;;;3.16;100.00;100169.19;4988013;28;20037;-76
2024/03/19 08:09:08;;;;;;;;;;;;;;;3.31;100.00;100251.50;4988592;28;20034;-76
2024/03/19 08:11:34;;;;;;;9.45;5.93;;;;;;;3.53;100.00;100313.03;4972188;28;19917;-77
2024/03/19 08:14:00;;;;;;;11.02;5.10;;;;;;;3.41;100.00;100270.03;4988257;28;20385;-77
2024/03/19 08:16:26;;;;;;;11.10;6.38;;;;;;;3.56;100.00;100296.97;4988223;28;20038;-76
2024/03/19 08:18:53;;;;;;;12.18;5.05;;;;;;;3.28;100.00;100228.00;4987886;28;20034;-76
2024/03/19 08:21:20;;;;;;;10.55;5.57;;;;;;;3.40;100.00;100299.22;4987695;28;20040;-76
2024/03/19 08:23:46;;;;;;;7.50;4.50;;;;;;;3.44;100.00;100242.53;4986996;28;20117;-76
2024/03/19 08:26:14;;;;;;;9.27;4.88;;;;;;;3.72;100.00;100344.88;4987390;28;20054;-76
2024/03/19 08:28:41;;;;;;;8.75;4.82;;;;;;;3.56;100.00;100241.53;4988100;28;20042;-76
2024/03/19 08:31:09;;;;;;;9.68;6.05;;;;;;;3.46;100.00;100257.28;4987291;28;20034;-76
2024/03/19 08:33:41;;;;;;;8.82;5.57;;;;;;;3.45;100.00;100275.91;5003913;28;20033;-77
2024/03/19 08:36:06;;;;;;;10.63;4.75;;;;;;;3.33;100.00;100289.16;4984620;28;20030;-76
2024/03/19 08:38:32;;;;;;;7.18;4.47;;;;;;;3.73;100.00;100380.03;4984421;28;20034;-76
2024/03/19 08:40:59;;;;;;;9.80;5.30;;;;;;;3.75;100.00;100314.75;4987355;28;20089;-76
2024/03/19 08:43:24;;;;;;;10.15;5.85;;;;;;;3.78;100.00;100267.78;4987234;28;20565;-76
2024/03/19 08:45:50;;;;;;;7.07;4.70;;;;;;;3.97;100.00;100325.16;4987454;28;20053;-76
2024/03/19 08:48:15;;;;;;;6.95;4.82;;;;;;;3.97;100.00;100284.69;4987069;28;20046;-77
2024/03/19 08:50:40;;;;;;;11.30;5.20;;;;;;;4.27;100.00;100325.31;4986566;28;20041;-76
2024/03/19 08:53:07;;;;;;;8.43;5.07;;;;;;;4.26;100.00;100262.84;4983353;28;20054;-76
2024/03/19 08:55:35;;;;;;;9.13;4.68;;;;;;;4.77;100.00;100290.97;4967705;28;20045;-76
2024/03/19 08:58:00;;;;;;;12.10;5.25;;;;;;;4.86;100.00;100219.56;4987035;28;20096;-76
2024/03/19 09:00:26;;;;;;;7.57;4.87;;;;;;;5.01;100.00;100192.69;4988111;28;20470;-76
2024/03/19 09:02:51;;;;;;;8.98;4.90;;;;;;;4.93;100.00;100045.25;4988140;28;20356;-76
2024/03/19 09:05:17;;;;;;;6.97;5.30;;;;;;;4.96;100.00;100089.91;4988066;28;20065;-76
2024/03/19 09:07:42;;;;;;;7.25;5.32;;;;;;;5.03;100.00;100011.69;4985403;28;20297;-76
2024/03/19 09:10:09;;;;;;;6.47;4.37;;;;;;;5.28;100.00;100027.88;4986551;28;20040;-76
2024/03/19 09:12:35;;;;;;;8.75;5.53;;;;;;;5.40;100.00;100005.50;4981952;28;20868;-76
2024/03/19 09:15:01;;;;;;;11.25;5.57;;;;;;;5.95;100.00;100123.91;4985903;28;20062;-76
2024/03/19 09:17:26;;;;;;;6.68;4.15;;;;;;;5.08;100.00;99779.25;4986832;28;20433;-76
2024/03/19 09:19:51;;;;;;;8.50;5.10;;;;;;;5.67;100.00;100070.06;4979783;28;20485;-76
2024/03/19 09:22:17;;;;;;;7.50;4.30;;;;;;;5.63;100.00;99896.53;4981835;28;20034;-76
2024/03/19 09:24:42;;;;;;;6.93;4.73;;;;;;;6.05;100.00;99928.56;4984489;28;20502;-76
2024/03/19 09:27:08;;;;;;;12.53;5.13;;;;;;;5.62;100.00;99784.50;4986621;28;20293;-75
2024/03/19 09:29:34;;;;;;;7.82;4.93;;;;;;;5.42;100.00;99693.81;4987299;28;20289;-76
2024/03/19 09:31:59;;;;;;;9.82;4.47;;;;;;;5.08;100.00;99633.72;4994420;28;20155;-76
2024/03/19 09:34:25;;;;;;;7.53;4.13;;;;;;;5.74;100.00;99867.19;4986463;28;20042;-76
2024/03/19 09:36:50;;;;;;;7.65;4.03;;;;;;;5.95;100.00;99805.09;4987407;28;20129;-76
2024/03/19 09:39:16;;;;;;;8.20;4.15;;;;;;;5.56;100.00;99609.53;4983917;28;20038;-77
2024/03/19 09:41:45;;;;;;;11.07;4.93;;;;;;;5.27;100.00;99616.81;4989714;28;20034;-76
2024/03/19 09:44:17;;;;;;;7.43;4.50;;;;;;;5.80;100.00;99818.06;4970673;28;20408;-76
2024/03/19 09:46:44;;;;;;;12.90;4.55;;;;;;;5.49;100.00;99684.28;5002134;28;20042;-76
2024/03/19 09:49:16;;;;;;;12.07;6.15;;;;;;;5.55;100.00;99682.84;4985574;28;20422;-76
2024/03/19 09:51:41;;;;;;;11.40;4.68;;;;;;;5.85;100.00;99818.41;4987299;28;20478;-76
2024/03/19 09:54:09;;;;;;;7.00;4.25;;;;;;;6.06;100.00;99826.91;4985923;28;20021;-76
2024/03/19 09:56:35;;;;;;;9.63;5.05;;;;;;;6.50;100.00;99905.53;4986117;28;20085;-76
2024/03/19 09:59:39;;;;;;;13.50;5.25;;;;;;;6.23;98.96;99766.84;5002273;28;20038;-76
2024/03/19 10:02:14;;;;;;;7.43;4.80;;;;;;;6.93;97.40;99816.16;4984512;28;20034;-76
2024/03/19 10:04:45;;;;;;;11.13;4.18;;;;;;;6.80;95.82;99625.63;4986092;28;20340;-76
2024/03/19 10:07:12;;;;;;;6.00;4.05;;;;;;;7.39;96.30;99875.84;4986229;28;20046;-76
2024/03/19 10:09:37;;;;;;;8.55;5.18;;;;;;;7.59;94.48;99743.56;4986149;28;20073;-75
2024/03/19 10:12:03;;;;;;;8.10;4.57;;;;;;;7.34;92.44;99532.97;4986124;28;20058;-75
2024/03/19 10:14:31;;;;;;;10.10;4.47;;;;;;;7.30;93.22;99648.47;4987407;28;20121;-76
2024/03/19 10:16:57;;;;;;;9.50;5.00;;;;;;;7.00;93.77;99636.75;4987408;28;20085;-76
2024/03/19 10:19:23;;;;;;;11.27;5.75;;;;;;;7.05;94.39;99622.97;4980700;28;20054;-76
2024/03/19 10:21:48;;;;;;;6.97;4.40;;;;;;;7.22;92.41;99597.25;4970084;28;20124;-76
2024/03/19 10:24:15;;;;;;;9.68;4.40;;;;;;;6.99;92.82;99576.69;4986145;28;20496;-76
2024/03/19 10:26:42;;;;;;;7.70;4.63;;;;;;;6.43;91.53;99363.59;4987149;28;20045;-75
2024/03/19 10:29:12;;;;;;;7.15;4.47;;;;;;;7.38;93.79;99836.19;4968222;28;20034;-76
2024/03/19 10:31:39;;;;;;;8.23;4.40;;;;;;;7.99;92.18;99839.34;4987249;28;20061;-76
2024/03/19 10:34:05;;;;;;;11.85;5.47;;;;;;;9.05;90.50;99939.38;4987076;28;20551;-76
2024/03/19 10:36:35;;;;;;;9.55;4.70;;;;;;;8.35;88.49;99498.53;4986387;28;20557;-76
2024/03/19 10:39:02;;;;;;;9.38;5.35;;;;;;;8.62;88.03;99607.09;4986912;28;20044;-76
2024/03/19 10:41:30;;;;;;;6.75;4.90;;;;;;;7.44;86.39;99166.31;4987411;28;20037;-76
2024/03/19 10:44:00;;;;;;;8.57;4.72;;;;;;;7.92;89.47;99647.00;4978115;28;20162;-75
2024/03/19 10:46:29;;;;;;;7.43;4.00;;;;;;;7.51;88.27;99411.56;4986294;28;20128;-75
2024/03/19 10:48:54;;;;;;;11.48;5.65;;;;;;;7.86;88.05;99494.38;5001826;28;20026;-76
2024/03/19 10:51:20;;;;;;;8.27;5.03;;;;;;;8.28;87.32;99525.00;4986124;28;20034;-75
2024/03/19 10:53:47;;;;;;;14.00;4.88;;;;;;;7.27;87.20;99265.72;4985984;28;20034;-76
2024/03/19 10:56:13;;;;;;;;;;;;;;;7.36;87.98;99424.78;4986040;28;20113;-76
2024/03/19 10:58:40;;;;;;;10.05;5.15;;;;;;;7.22;88.41;99419.38;4985631;28;19914;-76
2024/03/19 11:01:06;;;;;;;10.60;6.30;;;;;;;7.03;89.49;99487.78;4985509;28;20045;-76
2024/03/19 11:03:31;;;;;;;9.73;5.22;;;;;;;8.34;90.62;99933.88;4985685;28;20038;-75
2024/03/19 11:06:04;;;;;;;7.93;5.88;;;;;;;8.45;88.35;99734.06;4986933;28;20050;-76
2024/03/19 11:08:30;;;;;;;9.25;5.72;;;;;;;8.30;87.02;99533.63;4986086;28;20640;-75
2024/03/19 11:11:09;;;;;;;9.07;5.50;;;;;;;8.56;86.82;99602.47;4985754;28;20042;-76
2024/03/19 11:13:35;;;;;;;8.80;5.82;;;;;;;7.98;86.74;99445.16;4981515;28;20636;-75
2024/03/19 11:16:11;;;;;;;10.55;5.60;;;;;;;7.99;87.28;99539.00;4985757;28;20113;-76
2024/03/19 11:18:42;;;;;;;17.10;6.30;;;;;;;7.63;88.26;99562.59;4984840;28;20046;-76
2024/03/19 11:21:16;;;;;;;6.95;5.20;;;;;;;7.59;88.54;99597.47;4986048;28;20045;-76